Time;durP1;ratioP1;P1;durP2;ratioP2;P2;SDS_P1;SDS_P2;PMS_P1;PMS_P2;Temp;Humidity;BMP_temperature;BMP_pressure;BME280_temperature;BME280_humidity;BME280_pressure;Samples;Min_cycle;Max_cycle;Signal;HPM_P1;HPM_P2
2023/05/09 00:02:12;;;;;;;5.63;4.80;;;14.70;98.20;;;;;;4956402;28;20488;-73
2023/05/09 00:04:40;;;;;;;5.07;4.50;;;14.70;98.20;;;;;;4956322;29;20496;-73
2023/05/09 00:07:09;;;;;;;5.23;4.47;;;14.70;98.20;;;;;;4956684;28;20474;-73
2023/05/09 00:09:37;;;;;;;5.57;4.73;;;14.60;98.20;;;;;;4955139;29;20537;-73
2023/05/09 00:12:08;;;;;;;7.80;4.63;;;14.60;98.20;;;;;;4956408;28;20948;-73
2023/05/09 00:14:38;;;;;;;6.73;4.60;;;14.60;98.30;;;;;;4956005;28;20514;-70
2023/05/09 00:17:07;;;;;;;5.00;4.50;;;14.50;98.20;;;;;;4955842;28;20438;-70
2023/05/09 00:19:35;;;;;;;4.30;3.90;;;14.50;98.20;;;;;;4955609;28;20443;-70
2023/05/09 00:22:03;;;;;;;4.57;4.07;;;14.50;98.20;;;;;;4956546;28;20809;-70
2023/05/09 00:24:31;;;;;;;5.33;4.73;;;14.40;98.20;;;;;;4955627;29;20468;-71
2023/05/09 00:27:00;;;;;;;8.10;4.30;;;14.40;98.20;;;;;;4955514;29;20531;-71
2023/05/09 00:29:30;;;;;;;5.00;4.03;;;14.40;98.30;;;;;;4955584;29;21005;-71
2023/05/09 00:31:58;;;;;;;6.20;4.37;;;14.40;98.30;;;;;;4955755;29;20438;-71
2023/05/09 00:34:26;;;;;;;5.00;4.50;;;14.30;98.30;;;;;;4954405;29;20503;-71
2023/05/09 00:36:54;;;;;;;6.10;4.40;;;14.30;98.30;;;;;;4955928;28;20549;-71
2023/05/09 00:39:22;;;;;;;5.67;4.30;;;14.30;98.30;;;;;;4955524;29;20453;-71
2023/05/09 00:41:51;;;;;;;5.47;4.73;;;14.20;98.30;;;;;;4954225;29;20898;-71
2023/05/09 00:44:19;;;;;;;6.43;4.23;;;14.20;98.30;;;;;;4955225;29;20979;-71
2023/05/09 00:46:49;;;;;;;5.27;4.40;;;14.20;98.30;;;;;;4954336;29;20446;-71
2023/05/09 00:49:17;;;;;;;6.83;6.10;;;14.20;98.30;;;;;;4954061;29;20456;-71
2023/05/09 00:51:47;;;;;;;8.30;5.20;;;14.10;98.30;;;;;;4955310;28;20470;-71
2023/05/09 00:54:15;;;;;;;4.63;4.20;;;14.10;98.30;;;;;;4954041;29;20469;-71
2023/05/09 00:56:45;;;;;;;5.33;4.33;;;14.10;98.30;;;;;;4954072;29;20836;-71
2023/05/09 00:59:13;;;;;;;5.53;4.80;;;14.10;98.40;;;;;;4953800;29;20546;-71
2023/05/09 01:01:44;;;;;;;5.17;4.43;;;14.10;98.40;;;;;;4953734;29;20879;-71
2023/05/09 01:04:15;;;;;;;6.30;4.77;;;14.10;98.40;;;;;;4954945;28;20541;-71
2023/05/09 01:06:55;;;;;;;5.23;4.73;;;14.00;98.40;;;;;;4955363;29;20931;-71
2023/05/09 01:09:29;;;;;;;6.70;4.20;;;14.00;98.40;;;;;;4955274;28;20881;-71
2023/05/09 01:12:07;;;;;;;6.10;4.63;;;13.90;98.40;;;;;;4953806;29;20443;-71
2023/05/09 01:14:41;;;;;;;5.33;4.40;;;13.90;98.70;;;;;;4955120;29;20462;-71
2023/05/09 01:17:14;;;;;;;7.10;4.23;;;13.90;98.40;;;;;;4954069;29;20891;-71
2023/05/09 01:20:04;;;;;;;5.87;4.40;;;13.80;98.40;;;;;;4953920;29;20455;-71
2023/05/09 01:22:36;;;;;;;7.07;4.47;;;13.80;98.40;;;;;;4955290;28;20423;-71
2023/05/09 01:25:43;;;;;;;4.90;4.40;;;13.80;98.40;;;;;;4954845;28;20494;-71
2023/05/09 01:28:19;;;;;;;5.50;4.23;;;13.70;98.40;;;;;;4953592;29;20480;-70
2023/05/09 01:30:51;;;;;;;5.90;4.60;;;13.70;98.40;;;;;;4953691;29;20446;-71
2023/05/09 01:33:21;;;;;;;5.30;4.20;;;13.70;98.50;;;;;;4956666;29;20810;-71
2023/05/09 01:35:53;;;;;;;5.93;4.43;;;13.70;98.50;;;;;;4957511;29;20513;-71
2023/05/09 01:38:25;;;;;;;5.23;4.60;;;13.60;98.50;;;;;;4959369;28;20415;-71
2023/05/09 01:40:54;;;;;;;5.10;4.10;;;13.60;98.50;;;;;;4958860;28;20760;-71
2023/05/09 01:43:27;;;;;;;5.93;5.00;;;13.60;98.50;;;;;;4958772;28;20470;-72
2023/05/09 01:45:58;;;;;;;5.70;4.90;;;13.60;98.60;;;;;;4958794;28;20462;-71
2023/05/09 01:48:28;;;;;;;6.00;5.40;;;13.50;98.50;;;;;;4957534;29;20454;-70
2023/05/09 01:50:58;;;;;;;5.97;5.30;;;13.50;98.60;;;;;;4957439;29;20438;-71
2023/05/09 01:53:28;;;;;;;4.67;4.17;;;13.50;98.60;;;;;;4958928;28;20439;-71
2023/05/09 01:55:58;;;;;;;5.60;4.80;;;13.50;98.60;;;;;;4958789;28;20458;-70
2023/05/09 01:58:26;;;;;;;5.73;4.07;;;13.40;98.60;;;;;;4958830;28;20438;-71
2023/05/09 02:00:56;;;;;;;4.90;3.80;;;13.40;98.60;;;;;;4975555;28;20477;-71
2023/05/09 02:03:25;;;;;;;6.10;4.50;;;13.40;98.60;;;;;;4963937;28;20470;-71
2023/05/09 02:05:55;;;;;;;6.23;5.00;;;13.40;98.70;;;;;;4961304;29;20455;-71
2023/05/09 02:08:24;;;;;;;6.17;4.43;;;13.30;98.70;;;;;;4958947;29;21014;-71
2023/05/09 02:10:53;;;;;;;6.47;4.40;;;13.30;98.70;;;;;;4961124;28;20474;-71
2023/05/09 02:13:22;;;;;;;5.70;4.63;;;13.30;98.70;;;;;;4958461;29;20454;-71
2023/05/09 02:15:51;;;;;;;5.43;4.50;;;13.30;98.70;;;;;;4957458;29;20470;-70
2023/05/09 02:18:20;;;;;;;7.93;5.30;;;13.20;98.70;;;;;;4957553;29;20815;-71
2023/05/09 02:20:49;;;;;;;5.63;4.80;;;13.20;98.70;;;;;;4958520;29;20476;-70
2023/05/09 02:23:18;;;;;;;7.73;4.67;;;13.20;98.70;;;;;;4957432;29;20843;-71
2023/05/09 02:25:46;;;;;;;5.40;4.57;;;13.20;98.70;;;;;;4956880;29;20525;-71
2023/05/09 02:28:16;;;;;;;6.10;4.40;;;13.20;98.70;;;;;;4958291;29;20446;-71
2023/05/09 02:30:47;;;;;;;5.93;4.60;;;13.10;98.70;;;;;;4956734;29;20541;-70
2023/05/09 02:33:15;;;;;;;7.13;5.23;;;13.10;98.70;;;;;;4956706;29;20501;-70
2023/05/09 02:35:46;;;;;;;5.33;4.53;;;13.10;98.70;;;;;;4957792;28;20492;-70
2023/05/09 02:38:15;;;;;;;8.40;5.27;;;13.10;98.70;;;;;;4957842;29;20433;-71
2023/05/09 02:40:43;;;;;;;7.50;4.83;;;13.00;98.70;;;;;;4957814;29;20468;-71
2023/05/09 02:43:11;;;;;;;5.90;4.40;;;13.00;98.70;;;;;;4956419;28;20550;-70
2023/05/09 02:45:40;;;;;;;6.73;4.60;;;13.00;98.70;;;;;;4957504;28;20501;-71
2023/05/09 02:48:08;;;;;;;5.63;5.03;;;12.90;98.60;;;;;;4956373;29;20461;-70
2023/05/09 02:50:38;;;;;;;5.23;4.57;;;12.90;98.60;;;;;;4957611;29;20453;-71
2023/05/09 02:53:08;;;;;;;5.50;4.90;;;12.90;98.60;;;;;;4957797;28;20493;-71
2023/05/09 02:55:36;;;;;;;5.43;4.43;;;12.80;98.60;;;;;;4957717;28;20545;-71
2023/05/09 02:58:05;;;;;;;5.17;4.67;;;12.80;98.60;;;;;;4957540;29;20537;-71
2023/05/09 03:00:43;;;;;;;5.20;4.20;;;12.80;98.60;;;;;;4956211;29;20461;-71
2023/05/09 03:03:13;;;;;;;6.07;5.47;;;12.80;98.70;;;;;;4956119;29;20501;-71
2023/05/09 03:05:41;;;;;;;4.80;4.30;;;12.70;98.60;;;;;;4956666;29;20546;-71
2023/05/09 03:08:11;;;;;;;6.80;4.97;;;12.70;98.60;;;;;;4958762;29;20521;-71
2023/05/09 03:10:39;;;;;;;6.30;5.13;;;12.70;98.60;;;;;;4956280;29;20513;-71
2023/05/09 03:13:09;;;;;;;5.40;4.90;;;12.70;98.60;;;;;;4957420;28;20501;-71
2023/05/09 03:15:37;;;;;;;6.00;4.40;;;12.70;98.60;;;;;;4957318;29;20545;-72
2023/05/09 03:18:06;;;;;;;7.40;4.40;;;12.60;98.60;;;;;;4956114;29;20455;-71
2023/05/09 03:20:34;;;;;;;5.40;4.77;;;12.60;98.60;;;;;;4955881;29;20482;-71
2023/05/09 03:23:04;;;;;;;6.20;4.57;;;12.60;98.60;;;;;;4957481;28;20443;-71
2023/05/09 03:25:33;;;;;;;5.67;4.80;;;12.60;98.70;;;;;;4956800;28;20902;-71
2023/05/09 03:28:02;;;;;;;6.30;5.10;;;12.50;98.60;;;;;;4955739;29;20463;-71
2023/05/09 03:30:30;;;;;;;5.70;4.83;;;12.50;98.60;;;;;;4955669;29;20865;-71
2023/05/09 03:32:59;;;;;;;7.60;5.40;;;12.50;98.70;;;;;;4955682;29;20482;-71
2023/05/09 03:35:27;;;;;;;9.93;5.40;;;12.50;98.70;;;;;;4955647;29;20458;-71
2023/05/09 03:37:55;;;;;;;5.53;4.70;;;12.40;98.70;;;;;;4955770;29;20454;-71
2023/05/09 03:40:23;;;;;;;6.93;5.10;;;12.40;98.70;;;;;;4955836;29;20481;-71
2023/05/09 03:43:05;;;;;;;6.70;4.50;;;12.40;98.70;;;;;;4955816;29;20447;-71
2023/05/09 03:45:34;;;;;;;6.83;4.70;;;12.40;98.70;;;;;;4955421;29;20489;-71
2023/05/09 03:48:07;;;;;;;7.03;4.77;;;12.40;98.70;;;;;;4956093;29;20545;-71
2023/05/09 03:50:38;;;;;;;6.63;4.83;;;12.40;98.80;;;;;;4956566;29;20454;-71
2023/05/09 03:53:07;;;;;;;6.30;4.77;;;12.30;98.70;;;;;;4955673;29;20447;-71
2023/05/09 03:55:36;;;;;;;5.33;4.83;;;12.30;98.70;;;;;;4955361;28;20493;-71
2023/05/09 03:58:06;;;;;;;7.40;5.10;;;12.30;98.80;;;;;;4955271;29;20442;-71
2023/05/09 04:00:38;;;;;;;5.63;4.93;;;12.30;98.80;;;;;;4955156;29;20454;-71
2023/05/09 04:03:11;;;;;;;6.53;4.83;;;12.30;98.80;;;;;;4956195;29;20800;-71
2023/05/09 04:05:44;;;;;;;7.27;5.30;;;12.30;98.80;;;;;;4956548;28;20496;-73
2023/05/09 04:08:19;;;;;;;15.83;11.40;;;12.30;98.80;;;;;;4955845;29;20442;-72
2023/05/09 04:10:49;;;;;;;7.60;6.77;;;12.30;98.90;;;;;;4956570;29;20450;-72
2023/05/09 04:13:18;;;;;;;6.93;5.33;;;12.30;98.90;;;;;;4956337;28;20438;-72
2023/05/09 04:15:46;;;;;;;8.30;7.13;;;12.30;98.90;;;;;;4956329;29;20459;-71
2023/05/09 04:18:15;;;;;;;5.70;5.10;;;12.20;98.90;;;;;;4954941;29;20454;-71
2023/05/09 04:20:45;;;;;;;6.20;5.07;;;12.30;98.90;;;;;;4956524;28;20450;-72
2023/05/09 04:23:14;;;;;;;6.87;5.33;;;12.20;98.90;;;;;;4955056;29;20571;-71
2023/05/09 04:25:42;;;;;;;6.00;4.87;;;12.20;98.90;;;;;;4954605;29;20501;-72
2023/05/09 04:28:11;;;;;;;6.60;5.30;;;12.20;98.90;;;;;;4956394;28;20438;-71
2023/05/09 04:30:41;;;;;;;8.20;5.17;;;12.20;98.90;;;;;;4956015;28;20501;-71
2023/05/09 04:33:10;;;;;;;6.53;5.80;;;12.20;99.00;;;;;;4955111;29;20992;-71
2023/05/09 04:35:38;;;;;;;5.87;5.10;;;12.20;99.00;;;;;;4954548;29;20533;-71
2023/05/09 04:38:07;;;;;;;7.37;5.37;;;12.20;99.00;;;;;;4954532;29;20451;-71
2023/05/09 04:40:36;;;;;;;8.00;6.20;;;12.20;99.00;;;;;;4954734;29;20972;-72
2023/05/09 04:43:04;;;;;;;6.00;5.40;;;12.20;99.00;;;;;;4956154;29;20924;-71
2023/05/09 04:45:33;;;;;;;9.97;5.47;;;12.20;99.00;;;;;;4954406;29;20537;-71
2023/05/09 04:48:04;;;;;;;6.43;5.20;;;12.20;99.10;;;;;;4954394;29;20451;-73
2023/05/09 04:50:32;;;;;;;9.50;5.90;;;12.30;99.10;;;;;;4955914;29;20427;-72
2023/05/09 04:53:00;;;;;;;7.00;5.53;;;12.30;99.40;;;;;;4955928;28;20435;-72
2023/05/09 04:55:29;;;;;;;8.87;6.00;;;12.30;99.20;;;;;;4954764;29;20475;-72
2023/05/09 04:57:57;;;;;;;5.53;4.90;;;12.30;99.20;;;;;;4955467;28;20442;-72
2023/05/09 05:00:25;;;;;;;5.87;5.27;;;12.30;99.20;;;;;;4954269;29;20952;-71
2023/05/09 05:02:54;;;;;;;6.40;5.30;;;12.30;99.20;;;;;;4954496;29;20477;-72
2023/05/09 05:05:27;;;;;;;7.20;5.03;;;12.30;99.20;;;;;;4954001;29;20503;-71
2023/05/09 05:07:55;;;;;;;5.50;4.80;;;12.40;99.20;;;;;;4953828;28;20537;-71
2023/05/09 05:10:29;;;;;;;5.87;4.80;;;12.40;99.50;;;;;;4954288;29;20553;-71
2023/05/09 05:13:05;;;;;;;6.87;5.23;;;12.40;99.20;;;;;;4954163;29;20951;-71
2023/05/09 05:15:35;;;;;;;11.20;6.13;;;12.40;99.30;;;;;;4954013;29;20466;-70
2023/05/09 05:18:04;;;;;;;8.07;5.73;;;12.50;99.30;;;;;;4953954;29;20454;-71
2023/05/09 05:20:36;;;;;;;7.30;5.60;;;12.50;99.30;;;;;;4953889;29;20435;-71
2023/05/09 05:23:04;;;;;;;6.37;5.40;;;12.50;99.30;;;;;;4953933;29;20513;-71
2023/05/09 05:25:33;;;;;;;5.83;5.10;;;12.50;99.30;;;;;;4953735;29;21045;-71
2023/05/09 05:28:02;;;;;;;6.80;5.83;;;12.60;99.40;;;;;;4955407;28;20970;-71
2023/05/09 05:30:30;;;;;;;5.97;5.37;;;12.60;99.40;;;;;;4953900;29;20454;-71
2023/05/09 05:33:02;;;;;;;6.57;5.80;;;12.60;99.40;;;;;;4954022;29;20439;-71
2023/05/09 05:35:31;;;;;;;7.30;5.43;;;12.70;99.40;;;;;;4953924;29;20474;-70
2023/05/09 05:38:01;;;;;;;7.63;6.33;;;12.70;99.50;;;;;;4954215;29;20505;-70
2023/05/09 05:40:29;;;;;;;6.23;5.43;;;12.80;99.50;;;;;;4954251;29;20541;-71
2023/05/09 05:43:01;;;;;;;9.77;6.50;;;12.80;99.50;;;;;;4954523;29;20454;-70
2023/05/09 05:45:30;;;;;;;6.87;5.70;;;12.90;99.80;;;;;;4954255;29;20561;-70
2023/05/09 05:48:01;;;;;;;7.33;5.53;;;12.90;99.50;;;;;;4953917;29;20443;-71
2023/05/09 05:50:32;;;;;;;5.67;5.17;;;13.10;99.60;;;;;;4953729;29;20450;-71
2023/05/09 05:53:01;;;;;;;6.77;6.00;;;13.20;99.70;;;;;;4955616;28;20474;-71
2023/05/09 05:55:30;;;;;;;7.63;6.10;;;13.40;99.70;;;;;;4954925;28;20462;-70
2023/05/09 05:57:58;;;;;;;8.10;6.50;;;13.50;99.80;;;;;;4953622;29;20469;-71
2023/05/09 06:00:27;;;;;;;7.57;6.50;;;13.70;99.80;;;;;;4953494;29;20454;-71
2023/05/09 06:03:02;;;;;;;6.30;5.70;;;13.90;99.90;;;;;;4953874;29;20525;-71
2023/05/09 06:05:46;;;;;;;6.00;5.23;;;14.20;99.90;;;;;;4953560;29;20474;-71
2023/05/09 06:08:16;;;;;;;7.60;6.80;;;14.40;99.90;;;;;;4954909;29;20944;-71
2023/05/09 06:10:44;;;;;;;6.43;5.77;;;14.70;99.90;;;;;;4954923;28;20793;-71
2023/05/09 06:13:12;;;;;;;6.33;5.73;;;14.90;99.90;;;;;;4954943;29;21000;-71
2023/05/09 06:15:45;;;;;;;7.10;6.20;;;15.10;99.90;;;;;;4953602;29;20476;-71
2023/05/09 06:18:13;;;;;;;7.00;5.57;;;15.30;99.90;;;;;;4955922;28;20438;-71
2023/05/09 06:20:41;;;;;;;6.93;5.83;;;15.60;99.90;;;;;;4957147;29;20433;-71
2023/05/09 06:23:10;;;;;;;6.60;6.00;;;15.80;99.90;;;;;;4958750;28;20441;-71
2023/05/09 06:25:39;;;;;;;8.67;6.70;;;16.10;99.90;;;;;;4957023;29;20470;-71
2023/05/09 06:28:07;;;;;;;6.13;5.53;;;16.30;99.70;;;;;;4958503;29;20492;-71
2023/05/09 06:30:36;;;;;;;6.77;6.07;;;16.50;99.80;;;;;;4957182;29;20515;-71
2023/05/09 06:33:04;;;;;;;6.33;5.50;;;16.80;99.70;;;;;;4957073;29;20507;-71
2023/05/09 06:35:32;;;;;;;8.60;6.83;;;17.00;99.70;;;;;;4957894;29;20458;-70
2023/05/09 06:38:01;;;;;;;7.57;6.17;;;17.20;99.60;;;;;;4959319;28;20406;-71
2023/05/09 06:40:29;;;;;;;7.23;6.30;;;17.40;99.60;;;;;;4958291;29;20479;-71
2023/05/09 06:42:58;;;;;;;8.63;7.03;;;17.60;99.50;;;;;;4957938;29;20422;-71
2023/05/09 06:45:27;;;;;;;7.50;6.80;;;17.80;99.60;;;;;;4957739;28;20564;-71
2023/05/09 06:47:55;;;;;;;7.20;6.50;;;18.10;99.60;;;;;;4957951;29;20984;-71
2023/05/09 06:50:23;;;;;;;15.87;9.83;;;18.20;99.40;;;;;;4958191;29;20451;-71
2023/05/09 06:52:51;;;;;;;8.33;7.30;;;18.40;99.50;;;;;;4957764;28;20494;-71
2023/05/09 06:55:19;;;;;;;8.10;7.30;;;18.50;99.40;;;;;;4957980;29;20467;-71
2023/05/09 06:57:48;;;;;;;7.67;6.87;;;18.70;99.50;;;;;;4957755;28;20442;-71
2023/05/09 07:00:18;;;;;;;8.43;7.50;;;18.90;99.50;;;;;;4957647;29;20952;-70
2023/05/09 07:02:46;;;;;;;8.20;6.30;;;19.10;99.40;;;;;;4958490;29;20438;-70
2023/05/09 07:05:14;;;;;;;9.80;7.07;;;19.30;99.30;;;;;;4958196;28;20486;-70
2023/05/09 07:07:43;;;;;;;7.00;6.00;;;19.40;99.20;;;;;;4957999;28;20561;-71
2023/05/09 07:10:12;;;;;;;7.40;6.70;;;19.50;99.20;;;;;;4957881;28;20447;-71
2023/05/09 07:12:40;;;;;;;11.73;9.00;;;19.70;99.20;;;;;;4957963;29;20449;-71
2023/05/09 07:15:10;;;;;;;13.03;11.23;;;19.80;99.20;;;;;;4957642;29;20458;-71
2023/05/09 07:17:39;;;;;;;12.47;8.20;;;20.00;99.20;;;;;;4956582;29;20454;-71
2023/05/09 07:20:08;;;;;;;11.80;10.60;;;20.10;99.10;;;;;;4957850;29;20467;-71
2023/05/09 07:22:37;;;;;;;9.47;8.57;;;20.20;99.00;;;;;;4958097;28;20443;-71
2023/05/09 07:25:07;;;;;;;8.37;7.57;;;20.20;98.80;;;;;;4957672;29;20462;-71
2023/05/09 07:27:36;;;;;;;9.67;8.57;;;20.30;98.80;;;;;;4958323;28;20565;-71
2023/05/09 07:30:05;;;;;;;8.50;7.27;;;20.30;98.80;;;;;;4955056;28;20501;-70
2023/05/09 07:32:33;;;;;;;10.03;8.50;;;20.40;98.90;;;;;;4957496;29;20446;-71
2023/05/09 07:35:03;;;;;;;9.43;8.30;;;20.50;98.90;;;;;;4957203;29;20513;-70
2023/05/09 07:37:31;;;;;;;9.30;8.40;;;20.60;98.90;;;;;;4957874;29;20439;-70
2023/05/09 07:39:59;;;;;;;8.63;7.83;;;20.70;98.90;;;;;;4957285;28;20979;-70
2023/05/09 07:42:29;;;;;;;9.07;7.57;;;20.70;98.80;;;;;;4957795;28;20843;-71
2023/05/09 07:44:57;;;;;;;13.37;10.63;;;20.80;98.80;;;;;;4957045;28;20839;-70
2023/05/09 07:47:26;;;;;;;8.80;7.93;;;20.80;98.80;;;;;;4957383;29;20928;-71
2023/05/09 07:49:54;;;;;;;10.20;9.20;;;20.90;98.80;;;;;;4957172;28;20473;-70
2023/05/09 07:52:24;;;;;;;9.57;8.67;;;20.90;98.80;;;;;;4957084;28;20530;-71
2023/05/09 07:54:53;;;;;;;9.30;8.43;;;21.00;98.90;;;;;;4956991;28;20485;-70
2023/05/09 07:57:21;;;;;;;9.80;8.80;;;21.00;98.90;;;;;;4957019;29;20490;-71
2023/05/09 07:59:50;;;;;;;11.00;8.67;;;20.90;98.80;;;;;;4956111;29;20450;-71
2023/05/09 08:02:18;;;;;;;10.30;8.73;;;20.80;98.80;;;;;;4957293;29;20468;-71
2023/05/09 08:04:47;;;;;;;18.57;16.73;;;20.80;98.70;;;;;;4956707;29;20470;-71
2023/05/09 08:07:16;;;;;;;10.60;9.20;;;20.70;98.70;;;;;;4956781;29;20470;-71
2023/05/09 08:09:45;;;;;;;11.10;9.83;;;20.70;98.70;;;;;;4956614;28;20467;-71
2023/05/09 08:12:13;;;;;;;10.87;9.07;;;20.70;98.70;;;;;;4956877;28;20481;-70
2023/05/09 08:14:42;;;;;;;9.60;8.70;;;20.70;98.80;;;;;;4956691;29;20462;-71
2023/05/09 08:17:10;;;;;;;10.23;9.33;;;20.80;98.90;;;;;;4956396;28;20431;-71
2023/05/09 08:19:38;;;;;;;10.47;9.53;;;20.80;98.90;;;;;;4957029;28;20439;-71
2023/05/09 08:22:06;;;;;;;10.53;9.40;;;20.90;99.00;;;;;;4956484;29;20442;-71
2023/05/09 08:24:34;;;;;;;11.63;9.47;;;21.00;99.20;;;;;;4954948;29;20463;-71
2023/05/09 08:27:04;;;;;;;9.80;8.90;;;21.10;99.50;;;;;;4956446;28;20813;-71
2023/05/09 08:29:32;;;;;;;10.67;9.40;;;21.20;99.30;;;;;;4956279;28;20537;-71
2023/05/09 08:32:00;;;;;;;10.50;9.60;;;21.30;99.20;;;;;;4956482;28;20438;-71
2023/05/09 08:34:30;;;;;;;9.43;8.63;;;21.30;99.20;;;;;;4956202;28;20482;-71
2023/05/09 08:36:58;;;;;;;10.73;9.70;;;21.40;99.30;;;;;;4956016;29;20529;-71
2023/05/09 08:39:26;;;;;;;10.30;9.07;;;21.50;99.40;;;;;;4956649;29;20442;-71
2023/05/09 08:41:58;;;;;;;11.50;10.50;;;21.60;99.40;;;;;;4956454;28;20470;-71
2023/05/09 08:44:30;;;;;;;10.83;9.80;;;21.70;99.50;;;;;;4956294;29;20482;-71
2023/05/09 08:47:00;;;;;;;10.97;9.97;;;21.80;99.50;;;;;;4956987;29;20506;-70
2023/05/09 08:49:29;;;;;;;10.67;9.63;;;21.90;99.80;;;;;;4956433;29;20426;-70
2023/05/09 08:51:58;;;;;;;11.03;10.00;;;21.90;99.60;;;;;;4956302;28;20449;-70
2023/05/09 08:54:27;;;;;;;13.70;12.13;;;22.00;99.50;;;;;;4955973;29;20972;-70
2023/05/09 08:56:55;;;;;;;11.23;10.17;;;22.10;99.50;;;;;;4956445;29;20442;-70
2023/05/09 08:59:25;;;;;;;12.60;11.30;;;22.20;99.60;;;;;;4956124;29;20442;-70
2023/05/09 09:01:55;;;;;;;13.13;11.73;;;22.20;99.60;;;;;;4955901;28;20446;-70
2023/05/09 09:04:23;;;;;;;12.47;11.47;;;22.30;99.60;;;;;;4956320;29;20462;-70
2023/05/09 09:06:53;;;;;;;12.50;10.80;;;22.40;99.60;;;;;;4955632;29;20844;-71
2023/05/09 09:09:23;;;;;;;14.30;13.10;;;22.40;99.60;;;;;;4954596;29;20478;-70
2023/05/09 09:11:52;;;;;;;13.40;12.20;;;22.50;99.60;;;;;;4955839;29;20462;-70
2023/05/09 09:14:25;;;;;;;13.77;12.37;;;22.60;99.60;;;;;;4955943;28;20455;-70
2023/05/09 09:16:57;;;;;;;12.63;11.43;;;22.60;99.60;;;;;;4956441;29;20427;-71
2023/05/09 09:19:30;;;;;;;12.50;11.40;;;22.70;99.70;;;;;;4956586;28;20423;-71
2023/05/09 09:22:02;;;;;;;11.47;10.50;;;22.70;99.70;;;;;;4957176;28;20510;-71
2023/05/09 09:24:31;;;;;;;13.43;12.23;;;22.80;99.70;;;;;;4956989;28;20467;-71
2023/05/09 09:27:05;;;;;;;13.50;12.30;;;22.80;99.60;;;;;;4955540;28;20466;-70
2023/05/09 09:29:34;;;;;;;13.07;11.97;;;22.80;99.60;;;;;;4956110;29;20430;-71
2023/05/09 09:32:05;;;;;;;11.70;10.60;;;22.90;99.90;;;;;;4956194;29;20451;-71
2023/05/09 09:34:34;;;;;;;11.97;10.80;;;22.90;99.80;;;;;;4956169;29;20458;-71
2023/05/09 09:37:02;;;;;;;11.80;10.70;;;23.00;99.80;;;;;;4955971;28;20447;-71
2023/05/09 09:39:30;;;;;;;11.70;10.50;;;23.00;99.80;;;;;;4956648;29;20481;-70
2023/05/09 09:42:10;;;;;;;16.17;14.57;;;23.10;99.80;;;;;;4955015;29;20866;-71
2023/05/09 09:44:38;;;;;;;12.63;11.53;;;23.10;99.70;;;;;;4955785;28;20478;-71
2023/05/09 09:47:10;;;;;;;13.03;11.93;;;23.20;99.80;;;;;;4956811;29;20474;-72
2023/05/09 09:49:44;;;;;;;13.03;11.73;;;23.20;99.80;;;;;;4956200;29;20423;-71
2023/05/09 09:52:23;;;;;;;14.13;12.50;;;23.20;99.70;;;;;;4956495;28;20454;-71
2023/05/09 09:54:54;;;;;;;11.47;10.27;;;23.30;99.60;;;;;;4959714;28;20489;-71
2023/05/09 09:57:40;;;;;;;11.97;10.97;;;23.30;99.70;;;;;;4959451;29;20423;-72
2023/05/09 10:00:10;;;;;;;12.00;11.00;;;23.30;99.70;;;;;;4958382;28;20450;-72
2023/05/09 10:02:49;;;;;;;13.00;11.43;;;23.40;99.70;;;;;;4959254;28;20450;-72
2023/05/09 10:05:21;;;;;;;12.27;11.27;;;23.40;99.70;;;;;;4959098;29;20469;-71
2023/05/09 10:07:57;;;;;;;12.13;11.10;;;23.40;99.60;;;;;;4959442;29;20469;-71
2023/05/09 10:10:30;;;;;;;12.17;11.17;;;23.40;99.50;;;;;;4959914;28;20457;-71
2023/05/09 10:13:00;;;;;;;14.03;12.67;;;23.40;99.50;;;;;;4960407;28;20554;-71
2023/05/09 10:15:30;;;;;;;14.30;13.07;;;23.40;99.40;;;;;;4958200;29;20474;-72
2023/05/09 10:18:21;;;;;;;12.93;11.63;;;23.40;99.40;;;;;;4959521;28;20451;-71
2023/05/09 10:20:50;;;;;;;12.33;11.33;;;23.40;99.40;;;;;;4959286;29;20517;-71
2023/05/09 10:23:19;;;;;;;16.43;11.70;;;23.40;99.40;;;;;;4959741;29;20537;-72
2023/05/09 10:26:05;;;;;;;12.63;11.33;;;23.40;99.40;;;;;;4959662;28;20462;-71
2023/05/09 10:28:38;;;;;;;10.73;9.73;;;23.40;99.50;;;;;;4959897;28;20466;-71
2023/05/09 10:31:14;;;;;;;10.87;9.97;;;23.50;99.60;;;;;;4957475;29;20481;-72
2023/05/09 10:33:49;;;;;;;11.83;10.63;;;23.50;99.70;;;;;;4957144;29;20805;-72
2023/05/09 10:36:20;;;;;;;10.63;9.60;;;23.60;99.70;;;;;;4958608;29;20426;-71
2023/05/09 10:38:49;;;;;;;11.40;10.40;;;23.60;99.60;;;;;;4958454;28;20481;-72
2023/05/09 10:41:18;;;;;;;13.23;11.97;;;23.60;99.50;;;;;;4958956;29;20435;-72
2023/05/09 10:43:47;;;;;;;10.47;9.57;;;23.60;99.50;;;;;;4958308;29;20454;-71
2023/05/09 10:46:16;;;;;;;13.57;11.47;;;23.60;99.50;;;;;;4959104;28;20477;-71
2023/05/09 10:48:47;;;;;;;10.77;9.73;;;23.60;99.60;;;;;;4959769;29;20470;-72
2023/05/09 10:51:17;;;;;;;11.33;10.40;;;23.60;99.50;;;;;;4958889;29;20419;-71
2023/05/09 10:53:46;;;;;;;10.50;9.60;;;23.60;99.40;;;;;;4958296;29;20439;-72
2023/05/09 10:56:26;;;;;;;10.27;9.30;;;23.60;99.40;;;;;;4958714;29;20467;-72
2023/05/09 10:58:55;;;;;;;11.33;10.23;;;23.70;99.50;;;;;;4958749;28;20419;-71
2023/05/09 11:01:31;;;;;;;10.67;9.77;;;23.80;99.60;;;;;;4957053;29;20827;-72
2023/05/09 11:04:02;;;;;;;10.53;9.63;;;23.80;99.50;;;;;;4957514;28;20437;-71
2023/05/09 11:06:42;;;;;;;11.17;9.80;;;23.90;99.40;;;;;;4956333;29;20502;-72
2023/05/09 11:09:31;;;;;;;11.80;9.50;;;23.90;99.10;;;;;;4958363;28;20454;-71
2023/05/09 11:12:11;;;;;;;10.30;9.50;;;23.90;99.10;;;;;;4958782;28;20474;-72
2023/05/09 11:14:42;;;;;;;10.60;9.80;;;23.90;99.10;;;;;;4961440;29;20470;-71
2023/05/09 11:17:12;;;;;;;11.40;9.30;;;23.80;99.10;;;;;;4959255;29;20451;-71
2023/05/09 11:20:08;;;;;;;14.80;12.93;;;23.80;99.10;;;;;;4957937;29;20438;-71
2023/05/09 11:22:41;;;;;;;11.33;10.23;;;23.80;99.10;;;;;;4959176;28;20434;-71
2023/05/09 11:25:11;;;;;;;12.57;11.57;;;23.90;99.10;;;;;;4959200;29;20470;-71
2023/05/09 11:27:42;;;;;;;10.60;9.70;;;23.90;99.10;;;;;;4959498;29;20454;-71
2023/05/09 11:30:13;;;;;;;12.03;10.87;;;23.90;99.00;;;;;;4959292;29;20496;-71
2023/05/09 11:32:44;;;;;;;10.33;9.40;;;23.80;98.90;;;;;;4959153;28;20525;-71
2023/05/09 11:35:16;;;;;;;10.80;9.90;;;23.80;99.00;;;;;;4958904;29;21051;-71
2023/05/09 11:37:47;;;;;;;10.47;9.47;;;23.80;99.00;;;;;;4962012;29;20491;-71
2023/05/09 11:40:17;;;;;;;10.50;9.50;;;23.80;99.00;;;;;;4962827;29;20782;-71
2023/05/09 11:42:46;;;;;;;11.50;10.50;;;23.80;99.00;;;;;;4961655;28;20450;-71
2023/05/09 11:45:15;;;;;;;9.77;8.87;;;23.80;99.00;;;;;;4961158;29;20474;-71
2023/05/09 11:47:45;;;;;;;16.00;14.60;;;23.80;99.00;;;;;;4960220;28;20940;-71
2023/05/09 11:50:16;;;;;;;11.63;10.63;;;23.80;99.00;;;;;;4959612;29;20478;-72
2023/05/09 11:52:46;;;;;;;10.20;9.30;;;23.80;99.00;;;;;;4959415;29;20477;-71
2023/05/09 11:55:15;;;;;;;12.27;11.17;;;23.80;98.90;;;;;;4957947;29;20481;-71
2023/05/09 11:57:46;;;;;;;10.60;9.70;;;23.80;99.00;;;;;;4959798;28;20450;-71
2023/05/09 12:00:16;;;;;;;11.30;10.30;;;23.70;98.90;;;;;;4958857;29;20419;-71
2023/05/09 12:02:45;;;;;;;10.37;9.40;;;23.70;98.90;;;;;;4959500;28;20453;-71
2023/05/09 12:05:17;;;;;;;10.47;9.53;;;23.70;98.90;;;;;;4956777;29;20470;-72
2023/05/09 12:07:46;;;;;;;10.70;9.80;;;23.60;98.90;;;;;;4956700;29;20458;-72
2023/05/09 12:10:16;;;;;;;8.83;8.00;;;23.60;98.90;;;;;;4956720;29;20466;-72
2023/05/09 12:12:45;;;;;;;10.00;9.10;;;23.60;99.00;;;;;;4956745;28;20890;-72
2023/05/09 12:15:14;;;;;;;9.17;8.37;;;23.60;99.10;;;;;;4956824;28;20529;-72
2023/05/09 12:17:44;;;;;;;9.83;8.93;;;23.60;99.00;;;;;;4956723;29;20449;-72
2023/05/09 12:20:15;;;;;;;9.63;8.83;;;23.60;98.90;;;;;;4956707;28;20455;-72
2023/05/09 12:22:44;;;;;;;9.17;8.37;;;23.60;98.90;;;;;;4957164;29;20451;-72
2023/05/09 12:25:12;;;;;;;9.73;8.93;;;23.60;99.00;;;;;;4956693;29;20469;-72
2023/05/09 12:27:41;;;;;;;11.63;9.90;;;23.60;99.10;;;;;;4956937;29;20497;-71
2023/05/09 12:30:12;;;;;;;9.77;8.97;;;23.60;99.10;;;;;;4956779;28;20474;-71
2023/05/09 12:32:42;;;;;;;10.47;9.37;;;23.70;99.10;;;;;;4957543;29;20427;-72
2023/05/09 12:35:10;;;;;;;10.93;9.93;;;23.70;99.40;;;;;;4956557;28;20823;-71
2023/05/09 12:37:40;;;;;;;11.17;10.17;;;23.70;99.10;;;;;;4956766;28;20474;-71
2023/05/09 12:40:11;;;;;;;11.37;9.07;;;23.80;99.10;;;;;;4957129;28;20454;-71
2023/05/09 12:42:43;;;;;;;10.13;9.23;;;23.80;99.00;;;;;;4957561;28;20429;-71
2023/05/09 12:45:12;;;;;;;9.90;9.10;;;23.70;99.00;;;;;;4957289;28;20533;-72
2023/05/09 12:47:41;;;;;;;11.10;10.03;;;23.80;99.10;;;;;;4957185;28;20438;-71
2023/05/09 12:50:12;;;;;;;10.57;9.60;;;23.80;99.10;;;;;;4957132;29;20505;-71
2023/05/09 12:52:42;;;;;;;10.17;9.27;;;23.80;99.10;;;;;;4958007;28;20458;-71
2023/05/09 12:55:30;;;;;;;10.23;9.20;;;23.70;99.10;;;;;;4957253;28;20980;-72
2023/05/09 12:58:00;;;;;;;9.97;9.03;;;23.80;99.10;;;;;;4957397;29;20442;-72